Time;durP1;ratioP1;P1;durP2;ratioP2;P2;SDS_P1;SDS_P2;PMS_P1;PMS_P2;Temp;Humidity;BMP_temperature;BMP_pressure;BME280_temperature;BME280_humidity;BME280_pressure;Samples;Min_cycle;Max_cycle;Signal;HPM_P1;HPM_P2
2022/07/10 00:00:28;;;;;;;;;;;19.10;92.10;;;;;;4378693;32;43184;-77
2022/07/10 00:02:56;;;;;;;;;;;19.00;91.90;;;;;;4391736;32;43037;-77
2022/07/10 00:05:23;;;;;;;;;;;19.00;92.00;;;;;;4392280;32;43605;-77
2022/07/10 00:07:51;;;;;;;;;;;19.00;92.00;;;;;;4378724;32;43869;-78
2022/07/10 00:10:18;;;;;;;;;;;19.00;92.00;;;;;;4378006;32;43648;-77
2022/07/10 00:12:46;;;;;;;;;;;19.00;92.00;;;;;;4391977;32;44189;-77
2022/07/10 00:15:13;;;;;;;;;;;19.00;92.10;;;;;;4391968;32;42591;-77
2022/07/10 00:17:40;;;;;;;;;;;19.00;91.90;;;;;;4378055;32;42484;-77
2022/07/10 00:20:08;;;;;;;;;;;19.00;91.90;;;;;;4391659;32;44230;-78
2022/07/10 00:22:36;;;;;;;;;;;19.00;92.00;;;;;;4391522;32;42075;-77
2022/07/10 00:25:04;;;;;;;;;;;19.00;92.00;;;;;;4378368;32;42928;-77
2022/07/10 00:27:31;;;;;;;;;;;18.90;92.10;;;;;;4391933;32;42897;-77
2022/07/10 00:29:58;;;;;;;;;;;18.90;92.10;;;;;;4391280;32;45978;-77
2022/07/10 00:32:25;;;;;;;;;;;18.90;92.00;;;;;;4378357;32;43884;-77
2022/07/10 00:34:53;;;;;;;;;;;18.90;91.90;;;;;;4391877;32;43881;-77
2022/07/10 00:37:23;;;;;;;;;;;18.90;92.00;;;;;;4378264;32;43711;-77
2022/07/10 00:39:50;;;;;;;;;;;18.90;92.10;;;;;;4391860;32;42860;-77
2022/07/10 00:42:17;;;;;;;;;;;18.80;91.90;;;;;;4391220;32;44181;-77
2022/07/10 00:44:44;;;;;;;;;;;18.80;92.10;;;;;;4391636;32;44857;-77
2022/07/10 00:47:12;;;;;;;;;;;18.80;91.80;;;;;;4378316;32;43057;-77
2022/07/10 00:49:39;;;;;;;;;;;18.80;92.00;;;;;;4391352;32;43191;-77
2022/07/10 00:52:06;;;;;;;;;;;18.80;92.00;;;;;;4378045;32;43998;-77
2022/07/10 00:54:34;;;;;;;;;;;18.80;91.90;;;;;;4377525;32;42924;-77
2022/07/10 00:57:03;;;;;;;;;;;18.80;92.00;;;;;;4391393;32;43478;-77
2022/07/10 00:59:33;;;;;;;;;;;18.80;92.00;;;;;;4377848;32;45405;-76
2022/07/10 01:02:00;;;;;;;;;;;18.80;92.10;;;;;;4390859;32;44051;-77
2022/07/10 01:04:27;;;;;;;;;;;18.70;92.10;;;;;;4377633;32;44514;-77
2022/07/10 01:06:54;;;;;;;;;;;18.70;92.00;;;;;;4390848;32;44170;-77
2022/07/10 01:09:22;;;;;;;;;;;18.70;92.00;;;;;;4391241;32;43858;-77
2022/07/10 01:11:49;;;;;;;;;;;18.70;92.10;;;;;;4377883;32;43772;-77
2022/07/10 01:14:16;;;;;;;;;;;18.70;92.10;;;;;;4377898;32;43053;-77
2022/07/10 01:16:43;;;;;;;;;;;18.70;92.00;;;;;;4377762;32;43065;-77
2022/07/10 01:19:10;;;;;;;;;;;18.70;91.90;;;;;;4390880;32;42876;-76
2022/07/10 01:21:37;;;;;;;;;;;18.60;92.10;;;;;;4390729;32;43477;-77
2022/07/10 01:24:08;;;;;;;;;;;18.60;92.00;;;;;;4377450;32;43855;-77
2022/07/10 01:26:36;;;;;;;;;;;18.60;92.00;;;;;;4377627;32;44195;-77
2022/07/10 01:29:05;;;;;;;;;;;18.60;92.10;;;;;;4390578;32;43725;-76
2022/07/10 01:31:33;;;;;;;;;;;18.60;92.10;;;;;;4390498;32;43660;-77
2022/07/10 01:34:01;;;;;;;;;;;18.60;92.10;;;;;;4377377;32;42837;-78
2022/07/10 01:36:29;;;;;;;;;;;18.50;92.00;;;;;;4390457;32;42697;-77
2022/07/10 01:38:57;;;;;;;;;;;18.50;92.00;;;;;;4376878;32;44056;-77
2022/07/10 01:41:25;;;;;;;;;;;18.50;92.00;;;;;;4390418;32;43842;-77
2022/07/10 01:43:52;;;;;;;;;;;18.50;92.10;;;;;;4390560;32;44216;-77
2022/07/10 01:46:20;;;;;;;;;;;18.50;92.10;;;;;;4376774;32;42787;-77
2022/07/10 01:48:48;;;;;;;;;;;18.50;92.10;;;;;;4390323;32;42849;-77
2022/07/10 01:51:15;;;;;;;;;;;18.50;92.10;;;;;;4390732;32;43951;-78
2022/07/10 01:53:42;;;;;;;;;;;18.50;92.10;;;;;;4376542;32;42853;-77
2022/07/10 01:56:11;;;;;;;;;;;18.50;92.10;;;;;;4390271;32;42893;-77
2022/07/10 01:58:38;;;;;;;;;;;18.50;91.90;;;;;;4376740;32;43937;-78
2022/07/10 02:01:06;;;;;;;;;;;18.40;92.00;;;;;;4377256;32;43304;-77
2022/07/10 02:06:19;;;;;;;;;;;18.40;92.00;;;;;;4390574;32;43496;-77
2022/07/10 02:08:46;;;;;;;;;;;18.40;91.90;;;;;;4389985;32;43470;-77
2022/07/10 02:11:14;;;;;;;;;;;18.40;92.00;;;;;;4390229;32;43270;-77
2022/07/10 02:13:41;;;;;;;;;;;18.30;92.10;;;;;;4390251;32;43075;-77
2022/07/10 02:16:08;;;;;;;;;;;18.30;92.00;;;;;;4390248;32;43852;-77
2022/07/10 02:18:35;;;;;;;;;;;18.30;91.90;;;;;;4389797;32;43818;-77
2022/07/10 02:21:03;;;;;;;;;;;18.30;92.00;;;;;;4376595;32;43005;-77
2022/07/10 02:23:30;;;;;;;;;;;18.20;92.00;;;;;;4390121;32;42630;-77
2022/07/10 02:25:57;;;;;;;;;;;18.20;92.10;;;;;;4389808;32;43728;-77
2022/07/10 02:28:24;;;;;;;;;;;18.20;92.00;;;;;;4376755;32;43767;-77
2022/07/10 02:30:51;;;;;;;;;;;18.20;92.00;;;;;;4389800;32;41993;-78
2022/07/10 02:33:18;;;;;;;;;;;18.20;92.00;;;;;;4376999;32;23163;-78
2022/07/10 02:35:45;;;;;;;;;;;18.20;92.10;;;;;;4389378;32;42844;-78
2022/07/10 02:38:12;;;;;;;;;;;18.20;92.00;;;;;;4389757;32;43665;-77
2022/07/10 02:40:39;;;;;;;;;;;18.10;92.00;;;;;;4376425;32;43835;-78
2022/07/10 02:43:06;;;;;;;;;;;18.10;92.00;;;;;;4376087;32;43136;-78
2022/07/10 02:45:33;;;;;;;;;;;18.10;92.00;;;;;;4376482;32;43859;-77
2022/07/10 02:48:00;;;;;;;;;;;18.10;92.00;;;;;;4376487;32;43108;-77
2022/07/10 02:50:28;;;;;;;;;;;18.10;92.00;;;;;;4389707;32;43765;-77
2022/07/10 02:52:55;;;;;;;;;;;18.00;92.00;;;;;;4376681;32;43832;-77
2022/07/10 02:55:22;;;;;;;;;;;18.00;92.00;;;;;;4376367;32;42772;-78
2022/07/10 02:57:49;;;;;;;;;;;18.00;92.10;;;;;;4376373;32;46107;-77
2022/07/10 03:00:16;;;;;;;;;;;18.00;92.10;;;;;;4376465;32;43682;-77
2022/07/10 03:02:43;;;;;;;;;;;17.90;91.90;;;;;;4389691;32;45829;-78
2022/07/10 03:05:10;;;;;;;;;;;17.90;91.90;;;;;;4390177;32;43108;-77
2022/07/10 03:07:37;;;;;;;;;;;17.90;92.00;;;;;;4390063;32;43459;-78
2022/07/10 03:10:05;;;;;;;;;;;17.90;92.10;;;;;;4376573;32;43877;-78
2022/07/10 03:12:32;;;;;;;;;;;17.90;92.10;;;;;;4389483;32;43219;-77
2022/07/10 03:14:59;;;;;;;;;;;17.80;92.10;;;;;;4389488;32;42392;-78
2022/07/10 03:17:27;;;;;;;;;;;17.80;92.20;;;;;;4389454;32;43401;-77
2022/07/10 03:19:54;;;;;;;;;;;17.80;92.60;;;;;;4389444;32;44313;-78
2022/07/10 03:22:21;;;;;;;;;;;17.80;92.20;;;;;;4389646;32;42871;-78
2022/07/10 03:24:48;;;;;;;;;;;17.80;92.20;;;;;;4389326;32;42852;-78
2022/07/10 03:27:16;;;;;;;;;;;17.80;92.20;;;;;;4376095;32;43063;-78
2022/07/10 03:29:43;;;;;;;;;;;17.80;92.30;;;;;;4376231;32;42448;-77
2022/07/10 03:32:10;;;;;;;;;;;17.80;92.30;;;;;;4389278;32;42870;-78
2022/07/10 03:34:37;;;;;;;;;;;17.80;92.20;;;;;;4375978;32;43808;-78
2022/07/10 03:37:04;;;;;;;;;;;17.80;92.60;;;;;;4389312;32;43659;-78
2022/07/10 03:39:31;;;;;;;;;;;17.80;92.30;;;;;;4376125;32;45085;-78
2022/07/10 03:41:58;;;;;;;;;;;17.80;92.30;;;;;;4375714;32;43108;-78
2022/07/10 03:44:26;;;;;;;;;;;17.80;92.20;;;;;;4375625;32;44196;-79
2022/07/10 03:46:53;;;;;;;;;;;17.80;92.20;;;;;;4379707;32;20034;-78
2022/07/10 03:49:20;;;;;;;;;;;17.80;92.20;;;;;;4378924;32;43793;-77
2022/07/10 03:51:47;;;;;;;;;;;17.70;92.10;;;;;;4392391;32;43200;-77
2022/07/10 03:54:14;;;;;;;;;;;17.70;92.10;;;;;;4378361;32;44274;-77
2022/07/10 03:59:28;;;;;;;;;;;17.70;92.10;;;;;;4392513;32;43032;-77
2022/07/10 04:01:55;;;;;;;;;;;17.70;92.10;;;;;;4378955;32;44277;-78
2022/07/10 04:04:22;;;;;;;;;;;17.60;92.00;;;;;;4392222;32;43243;-77
2022/07/10 04:06:49;;;;;;;;;;;17.60;92.10;;;;;;4392238;32;44964;-78
2022/07/10 04:09:16;;;;;;;;;;;17.60;92.10;;;;;;4392096;32;43243;-79
2022/07/10 04:11:46;;;;;;;;;;;17.60;92.10;;;;;;4378176;32;43225;-79
2022/07/10 04:14:16;;;;;;;;;;;17.60;92.10;;;;;;4378957;32;43316;-79
2022/07/10 04:16:43;;;;;;;;;;;17.50;92.10;;;;;;4378290;32;43376;-79
2022/07/10 04:19:10;;;;;;;;;;;17.50;92.20;;;;;;4391479;32;42858;-79
2022/07/10 04:21:37;;;;;;;;;;;17.50;92.20;;;;;;4378511;32;42862;-79
2022/07/10 04:24:05;;;;;;;;;;;17.50;92.20;;;;;;4378446;32;43905;-79
2022/07/10 04:26:33;;;;;;;;;;;17.50;92.10;;;;;;4391581;32;42423;-79
2022/07/10 04:29:00;;;;;;;;;;;17.50;92.20;;;;;;4392356;32;43545;-79
2022/07/10 04:31:27;;;;;;;;;;;17.50;92.30;;;;;;4377928;32;42794;-79
2022/07/10 04:33:57;;;;;;;;;;;17.50;92.30;;;;;;4377910;32;42429;-79
2022/07/10 04:36:24;;;;;;;;;;;17.50;92.20;;;;;;4378290;32;44273;-79
2022/07/10 04:38:51;;;;;;;;;;;17.50;92.30;;;;;;4378111;32;43478;-79
2022/07/10 04:41:18;;;;;;;;;;;17.40;92.30;;;;;;4377883;32;42844;-78
2022/07/10 04:43:45;;;;;;;;;;;17.40;92.30;;;;;;4391240;32;42538;-80
2022/07/10 04:46:12;;;;;;;;;;;17.40;92.30;;;;;;4391185;32;43599;-79
2022/07/10 04:48:39;;;;;;;;;;;17.40;92.30;;;;;;4377785;32;43486;-79
2022/07/10 04:51:08;;;;;;;;;;;17.40;92.40;;;;;;4377638;32;42589;-79
2022/07/10 04:53:35;;;;;;;;;;;17.40;92.50;;;;;;4377749;32;43635;-79
2022/07/10 04:56:02;;;;;;;;;;;17.40;92.50;;;;;;4391191;32;42085;-79
2022/07/10 04:58:29;;;;;;;;;;;17.30;92.50;;;;;;4390313;32;43585;-79
2022/07/10 05:00:56;;;;;;;;;;;17.30;92.60;;;;;;4391263;32;42636;-79
2022/07/10 05:03:24;;;;;;;;;;;17.30;92.50;;;;;;4391130;32;44230;-79
2022/07/10 05:05:51;;;;;;;;;;;17.30;92.60;;;;;;4390843;32;42957;-80
2022/07/10 05:08:18;;;;;;;;;;;17.30;92.60;;;;;;4391497;32;43869;-79
2022/07/10 05:10:45;;;;;;;;;;;17.30;92.70;;;;;;4391676;32;43863;-79
2022/07/10 05:13:12;;;;;;;;;;;17.30;92.70;;;;;;4377556;32;44072;-79
2022/07/10 05:15:39;;;;;;;;;;;17.20;92.70;;;;;;4377348;32;42669;-79
2022/07/10 05:18:07;;;;;;;;;;;17.20;92.90;;;;;;4377393;32;44648;-79
2022/07/10 05:20:35;;;;;;;;;;;17.30;92.90;;;;;;4391055;32;43658;-78
2022/07/10 05:23:02;;;;;;;;;;;17.30;93.00;;;;;;4390583;32;44836;-78
2022/07/10 05:25:32;;;;;;;;;;;17.20;93.10;;;;;;4390803;32;43891;-79
2022/07/10 05:27:59;;;;;;;;;;;17.30;93.10;;;;;;4390569;32;43024;-79
2022/07/10 05:30:26;;;;;;;;;;;17.30;93.20;;;;;;4376995;32;43494;-78
2022/07/10 05:32:53;;;;;;;;;;;17.20;93.20;;;;;;4390761;32;43349;-78
2022/07/10 05:35:20;;;;;;;;;;;17.30;93.30;;;;;;4376755;32;43475;-80
2022/07/10 05:37:47;;;;;;;;;;;17.20;93.30;;;;;;4376628;32;44979;-78
2022/07/10 05:40:14;;;;;;;;;;;17.20;93.40;;;;;;4390301;32;43545;-79
2022/07/10 05:42:41;;;;;;;;;;;17.20;93.50;;;;;;4390523;32;44100;-79
2022/07/10 05:45:09;;;;;;;;;;;17.20;93.60;;;;;;4376760;32;41702;-78
2022/07/10 05:47:36;;;;;;;;;;;17.20;93.60;;;;;;4376620;32;44488;-78
2022/07/10 05:50:04;;;;;;;;;;;17.20;93.80;;;;;;4376730;32;44092;-78
2022/07/10 05:52:31;;;;;;;;;;;17.20;93.80;;;;;;4390166;32;44229;-79
2022/07/10 05:54:58;;;;;;;;;;;17.20;93.90;;;;;;4376673;32;43718;-79
2022/07/10 05:57:25;;;;;;;;;;;17.20;93.90;;;;;;4390142;32;43424;-78
2022/07/10 05:59:52;;;;;;;;;;;17.20;94.00;;;;;;4390100;32;42982;-78
2022/07/10 06:02:20;;;;;;;;;;;17.20;94.00;;;;;;4389744;32;44796;-80
2022/07/10 06:04:51;;;;;;;;;;;17.30;94.10;;;;;;4377136;32;42819;-79
2022/07/10 06:07:18;;;;;;;;;;;17.20;94.00;;;;;;4376728;32;43781;-78
2022/07/10 06:09:45;;;;;;;;;;;17.20;94.10;;;;;;4389834;32;43571;-79
2022/07/10 06:12:12;;;;;;;;;;;17.20;94.20;;;;;;4376419;32;43804;-80
2022/07/10 06:14:40;;;;;;;;;;;17.20;94.20;;;;;;4389233;32;44170;-78
2022/07/10 06:17:07;;;;;;;;;;;17.30;94.40;;;;;;4390369;32;43880;-78
2022/07/10 06:19:34;;;;;;;;;;;17.20;94.60;;;;;;4376374;32;43847;-78
2022/07/10 06:24:47;;;;;;;;;;;17.20;94.50;;;;;;4390527;32;43832;-78
2022/07/10 06:27:14;;;;;;;;;;;17.20;94.60;;;;;;4390245;32;45722;-78
2022/07/10 06:29:41;;;;;;;;;;;17.30;94.70;;;;;;4390137;32;43957;-78
2022/07/10 06:32:08;;;;;;;;;;;17.30;94.70;;;;;;4376409;32;43258;-79
2022/07/10 06:34:35;;;;;;;;;;;17.30;94.80;;;;;;4377327;32;19996;-79
2022/07/10 06:37:02;;;;;;;;;;;17.30;94.80;;;;;;4389738;32;42961;-79
2022/07/10 06:39:33;;;;;;;;;;;17.30;94.70;;;;;;4376101;32;42535;-78
2022/07/10 06:42:04;;;;;;;;;;;17.30;94.80;;;;;;4389611;32;42812;-78
2022/07/10 06:44:31;;;;;;;;;;;17.30;94.90;;;;;;4376486;32;42682;-78
2022/07/10 06:49:46;;;;;;;;;;;17.30;94.90;;;;;;4389691;32;44140;-78
2022/07/10 06:52:13;;;;;;;;;;;17.40;94.90;;;;;;4390121;32;43845;-79
2022/07/10 06:54:40;;;;;;;;;;;17.40;94.80;;;;;;4376420;32;44481;-79
2022/07/10 06:57:08;;;;;;;;;;;17.40;94.80;;;;;;4390039;32;43647;-79
2022/07/10 06:59:35;;;;;;;;;;;17.40;94.70;;;;;;4376057;32;42928;-79
2022/07/10 07:02:02;;;;;;;;;;;17.40;94.70;;;;;;4389591;32;43015;-81
2022/07/10 07:04:29;;;;;;;;;;;17.40;94.70;;;;;;4389747;32;43873;-78
2022/07/10 07:06:56;;;;;;;;;;;17.40;94.80;;;;;;4377523;32;20402;-78
2022/07/10 07:09:23;;;;;;;;;;;17.40;94.80;;;;;;4389814;32;44309;-78
2022/07/10 07:11:50;;;;;;;;;;;17.40;95.00;;;;;;4375857;32;43605;-78
2022/07/10 07:14:17;;;;;;;;;;;17.40;95.00;;;;;;4389517;32;43579;-79
2022/07/10 07:16:46;;;;;;;;;;;17.40;95.00;;;;;;4376154;32;43588;-80
2022/07/10 07:19:17;;;;;;;;;;;17.40;94.90;;;;;;4389292;32;43744;-79
2022/07/10 07:24:30;;;;;;;;;;;17.50;95.10;;;;;;4392637;32;44200;-78
2022/07/10 07:26:57;;;;;;;;;;;17.50;95.10;;;;;;4392773;32;42848;-78
2022/07/10 07:29:24;;;;;;;;;;;17.50;95.20;;;;;;4392629;32;43584;-80
2022/07/10 07:31:53;;;;;;;;;;;17.50;95.30;;;;;;4392200;32;44763;-79
2022/07/10 07:34:21;;;;;;;;;;;17.50;95.20;;;;;;4392118;32;43247;-79
2022/07/10 07:36:48;;;;;;;;;;;17.50;95.40;;;;;;4378757;32;43016;-78
2022/07/10 07:39:15;;;;;;;;;;;17.50;95.40;;;;;;4379092;32;43033;-82
2022/07/10 07:41:42;;;;;;;;;;;17.50;95.40;;;;;;4378821;32;43667;-80
2022/07/10 07:44:11;;;;;;;;;;;17.50;95.40;;;;;;4378863;32;43697;-79
2022/07/10 07:46:38;;;;;;;;;;;17.50;95.40;;;;;;4392038;32;43486;-79
2022/07/10 07:49:05;;;;;;;;;;;17.50;95.40;;;;;;4378440;32;43530;-79
2022/07/10 07:51:33;;;;;;;;;;;17.50;95.20;;;;;;4379056;32;43745;-79
2022/07/10 07:54:00;;;;;;;;;;;17.60;95.40;;;;;;4392112;32;44335;-79
2022/07/10 07:56:27;;;;;;;;;;;17.60;95.40;;;;;;4378745;32;43917;-79
2022/07/10 07:58:54;;;;;;;;;;;17.60;95.20;;;;;;4391833;32;42966;-79
2022/07/10 08:01:21;;;;;;;;;;;17.60;95.40;;;;;;4378227;32;43024;-76
2022/07/10 08:03:48;;;;;;;;;;;17.60;95.40;;;;;;4391578;32;45452;-80
2022/07/10 08:06:34;;;;;;;;;;;17.60;95.70;;;;;;4381081;32;44172;-81
2022/07/10 08:09:01;;;;;;;;;;;17.60;95.40;;;;;;4391844;32;43590;-79
2022/07/10 08:11:28;;;;;;;;;;;17.60;95.40;;;;;;4378606;32;44242;-81
2022/07/10 08:13:55;;;;;;;;;;;17.60;95.30;;;;;;4378245;32;45015;-79
2022/07/10 08:16:22;;;;;;;;;;;17.60;95.40;;;;;;4392145;32;42947;-80
2022/07/10 08:18:50;;;;;;;;;;;17.60;95.20;;;;;;4378401;32;42670;-80
2022/07/10 08:21:17;;;;;;;;;;;17.60;95.30;;;;;;4391492;32;42883;-78
2022/07/10 08:23:44;;;;;;;;;;;17.70;95.50;;;;;;4391903;32;43097;-79
2022/07/10 08:26:12;;;;;;;;;;;17.70;95.40;;;;;;4392025;32;44289;-78
2022/07/10 08:28:39;;;;;;;;;;;17.70;95.50;;;;;;4391917;32;43184;-78
2022/07/10 08:31:06;;;;;;;;;;;17.70;95.40;;;;;;4391255;32;42045;-78
2022/07/10 08:33:41;;;;;;;;;;;17.70;95.10;;;;;;4391366;32;45992;-79
2022/07/10 08:36:08;;;;;;;;;;;17.70;95.10;;;;;;4391961;32;42868;-79
2022/07/10 08:38:56;;;;;;;;;;;17.70;95.00;;;;;;4391400;32;42824;-78
2022/07/10 08:41:24;;;;;;;;;;;17.70;95.20;;;;;;4391168;32;43469;-79
2022/07/10 08:43:52;;;;;;;;;;;17.70;95.20;;;;;;4391443;32;44234;-79
2022/07/10 08:46:19;;;;;;;;;;;17.70;95.20;;;;;;4377775;32;44414;-79
2022/07/10 08:48:51;;;;;;;;;;;17.70;95.10;;;;;;4378232;32;43217;-81
2022/07/10 08:51:32;;;;;;;;;;;17.80;95.00;;;;;;4391568;32;42894;-80
2022/07/10 08:54:00;;;;;;;;;;;17.80;95.20;;;;;;4378202;32;43875;-79
2022/07/10 08:56:30;;;;;;;;;;;17.80;95.00;;;;;;4377690;32;42828;-78
2022/07/10 08:59:02;;;;;;;;;;;17.80;95.20;;;;;;4378047;32;44309;-78
2022/07/10 09:01:29;;;;;;;;;;;17.80;95.00;;;;;;4391384;32;44336;-78
2022/07/10 09:03:56;;;;;;;;;;;17.80;95.00;;;;;;4377417;32;42789;-78
2022/07/10 09:06:24;;;;;;;;;;;17.80;94.90;;;;;;4390891;32;42931;-80
2022/07/10 09:09:00;;;;;;;;;;;17.80;95.20;;;;;;4378801;32;43081;-78
2022/07/10 09:11:29;;;;;;;;;;;17.80;95.20;;;;;;4391524;32;44946;-79
2022/07/10 09:14:03;;;;;;;;;;;17.90;95.30;;;;;;4391375;32;43219;-78
2022/07/10 09:16:32;;;;;;;;;;;17.80;95.20;;;;;;4377809;32;43183;-78
2022/07/10 09:19:18;;;;;;;;;;;17.90;95.10;;;;;;4377216;32;43082;-79
2022/07/10 09:21:52;;;;;;;;;;;17.90;95.10;;;;;;4377586;32;43190;-79
2022/07/10 09:24:20;;;;;;;;;;;17.90;95.30;;;;;;4377626;32;45686;-78
2022/07/10 09:26:56;;;;;;;;;;;17.90;95.40;;;;;;4377525;32;44265;-79
2022/07/10 09:29:23;;;;;;;;;;;17.90;95.30;;;;;;4377065;32;43644;-78
2022/07/10 09:31:55;;;;;;;;;;;17.90;95.20;;;;;;4390550;32;42080;-80
2022/07/10 09:34:41;;;;;;;;;;;18.00;95.40;;;;;;4377534;32;44653;-78
2022/07/10 09:37:18;;;;;;;;;;;17.90;95.20;;;;;;4377363;32;42885;-77
2022/07/10 09:40:00;;;;;;;;;;;18.00;95.20;;;;;;4390466;32;43897;-78
2022/07/10 09:42:29;;;;;;;;;;;18.00;95.10;;;;;;4377333;32;43726;-78
2022/07/10 09:45:17;;;;;;;;;;;18.00;95.10;;;;;;4390214;32;42477;-77
2022/07/10 09:47:54;;;;;;;;;;;18.00;95.40;;;;;;4390412;32;43973;-78
2022/07/10 09:50:25;;;;;;;;;;;18.00;95.30;;;;;;4390340;32;42641;-77
2022/07/10 09:52:57;;;;;;;;;;;18.00;95.20;;;;;;4376959;32;43583;-78
2022/07/10 09:55:32;;;;;;;;;;;18.00;95.20;;;;;;4390754;32;43334;-80
2022/07/10 09:58:04;;;;;;;;;;;18.10;95.20;;;;;;4390626;32;42840;-80
2022/07/10 10:00:37;;;;;;;;;;;18.00;95.10;;;;;;4390477;32;45559;-81
2022/07/10 10:03:05;;;;;;;;;;;18.00;95.10;;;;;;4390501;32;43050;-79
2022/07/10 10:05:36;;;;;;;;;;;18.10;95.10;;;;;;4376685;32;43026;-80
2022/07/10 10:08:10;;;;;;;;;;;18.10;95.10;;;;;;4390570;32;44217;-79
2022/07/10 10:10:43;;;;;;;;;;;18.00;95.30;;;;;;4389993;32;42954;-78
2022/07/10 10:13:10;;;;;;;;;;;18.10;95.30;;;;;;4390488;32;44874;-77
2022/07/10 10:15:38;;;;;;;;;;;18.10;95.30;;;;;;4377010;32;44323;-78
2022/07/10 10:18:05;;;;;;;;;;;18.10;95.30;;;;;;4376356;32;42572;-77
2022/07/10 10:20:39;;;;;;;;;;;18.10;95.30;;;;;;4376352;32;42595;-77
2022/07/10 10:23:11;;;;;;;;;;;18.10;95.20;;;;;;4390228;32;42873;-80
2022/07/10 10:25:38;;;;;;;;;;;18.10;95.10;;;;;;4376822;32;43485;-77
2022/07/10 10:28:07;;;;;;;;;;;18.10;95.10;;;;;;4376212;32;42512;-78
2022/07/10 10:30:43;;;;;;;;;;;18.10;95.30;;;;;;4389959;32;43774;-78
2022/07/10 10:33:29;;;;;;;;;;;18.10;95.20;;;;;;4376781;32;44239;-80
2022/07/10 10:35:56;;;;;;;;;;;18.20;95.30;;;;;;4376656;32;43501;-80
2022/07/10 10:38:23;;;;;;;;;;;18.20;95.30;;;;;;4376078;32;43850;-81
2022/07/10 10:40:50;;;;;;;;;;;18.20;95.30;;;;;;4390108;32;43199;-78
2022/07/10 10:43:18;;;;;;;;;;;18.20;95.20;;;;;;4376940;32;43761;-79
2022/07/10 10:45:46;;;;;;;;;;;18.20;95.10;;;;;;4389864;32;43196;-78
2022/07/10 10:48:15;;;;;;;;;;;18.20;95.10;;;;;;4390027;32;43800;-78
2022/07/10 10:51:02;;;;;;;;;;;18.20;95.00;;;;;;4378574;32;43652;-80
2022/07/10 10:53:31;;;;;;;;;;;18.20;95.20;;;;;;4389761;32;43961;-78
2022/07/10 10:56:04;;;;;;;;;;;18.20;95.20;;;;;;4388867;32;43231;-79
2022/07/10 10:58:38;;;;;;;;;;;18.20;95.20;;;;;;4389857;32;44246;-80
2022/07/10 11:01:20;;;;;;;;;;;18.20;95.20;;;;;;4389856;32;43150;-79
2022/07/10 11:04:06;;;;;;;;;;;18.20;95.20;;;;;;4375971;32;43961;-80
2022/07/10 11:06:47;;;;;;;;;;;18.20;95.30;;;;;;4390136;32;43041;-83
2022/07/10 11:09:25;;;;;;;;;;;18.20;95.30;;;;;;4389458;32;42624;-78
2022/07/10 11:12:12;;;;;;;;;;;18.30;95.30;;;;;;4389802;32;42663;-78
2022/07/10 11:14:42;;;;;;;;;;;18.20;95.30;;;;;;4376718;32;44205;-79
2022/07/10 11:17:09;;;;;;;;;;;18.30;95.20;;;;;;4389651;32;45527;-79
2022/07/10 11:19:36;;;;;;;;;;;18.30;95.30;;;;;;4389733;32;44167;-79
2022/07/10 11:22:23;;;;;;;;;;;18.30;95.30;;;;;;4375712;32;42943;-78
2022/07/10 11:24:59;;;;;;;;;;;18.30;95.30;;;;;;4375870;32;42550;-78
2022/07/10 11:27:49;;;;;;;;;;;18.30;95.40;;;;;;4389901;32;45460;-81
2022/07/10 11:30:16;;;;;;;;;;;18.30;95.40;;;;;;4381825;32;43875;-78
2022/07/10 11:32:43;;;;;;;;;;;18.30;95.30;;;;;;4389204;32;44249;-80
2022/07/10 11:35:11;;;;;;;;;;;18.30;95.50;;;;;;4389831;32;45547;-80
2022/07/10 11:37:51;;;;;;;;;;;18.30;95.50;;;;;;4389423;32;44214;-77
2022/07/10 11:40:21;;;;;;;;;;;18.40;95.60;;;;;;4389694;32;43872;-77
2022/07/10 11:42:55;;;;;;;;;;;18.40;95.60;;;;;;4389202;32;42880;-81
2022/07/10 11:45:28;;;;;;;;;;;18.40;95.50;;;;;;4389206;32;42381;-80
2022/07/10 11:47:56;;;;;;;;;;;18.40;95.50;;;;;;4376019;32;43057;-78
2022/07/10 11:50:23;;;;;;;;;;;18.40;95.60;;;;;;4375996;32;43753;-77
2022/07/10 11:52:51;;;;;;;;;;;18.40;95.70;;;;;;4375639;32;43460;-80
2022/07/10 11:55:19;;;;;;;;;;;18.40;95.70;;;;;;4375999;32;43490;-78
2022/07/10 11:57:49;;;;;;;;;;;18.40;95.60;;;;;;4389120;32;42540;-77
2022/07/10 12:00:29;;;;;;;;;;;18.40;95.70;;;;;;4376115;32;44191;-80
2022/07/10 12:03:14;;;;;;;;;;;18.50;95.70;;;;;;4389325;32;44029;-77
2022/07/10 12:05:41;;;;;;;;;;;18.50;95.70;;;;;;4389666;32;43199;-78
2022/07/10 12:08:08;;;;;;;;;;;18.50;95.70;;;;;;4378471;32;44011;-77
2022/07/10 12:10:36;;;;;;;;;;;18.50;95.60;;;;;;4392155;32;43369;-82
2022/07/10 12:13:06;;;;;;;;;;;18.50;95.50;;;;;;4378410;32;43514;-78
2022/07/10 12:15:41;;;;;;;;;;;18.50;95.50;;;;;;4391836;32;43787;-78
2022/07/10 12:18:09;;;;;;;;;;;18.50;95.70;;;;;;4378669;32;44246;-77
2022/07/10 12:20:37;;;;;;;;;;;18.50;95.60;;;;;;4391880;32;44733;-79
2022/07/10 12:23:04;;;;;;;;;;;18.50;95.60;;;;;;4391468;32;43867;-77
2022/07/10 12:25:32;;;;;;;;;;;18.50;95.60;;;;;;4377982;32;42900;-77
2022/07/10 12:27:59;;;;;;;;;;;18.50;95.70;;;;;;4391792;32;43012;-78
2022/07/10 12:30:47;;;;;;;;;;;18.50;95.60;;;;;;4378474;32;44156;-78
2022/07/10 12:33:21;;;;;;;;;;;18.50;95.60;;;;;;4391947;32;43730;-77
2022/07/10 12:35:56;;;;;;;;;;;18.60;95.80;;;;;;4391508;32;42006;-77
2022/07/10 12:38:24;;;;;;;;;;;18.60;95.70;;;;;;4378505;32;44468;-78
2022/07/10 12:41:06;;;;;;;;;;;18.60;95.70;;;;;;4378146;32;44070;-77
2022/07/10 12:43:33;;;;;;;;;;;18.60;96.00;;;;;;4392183;32;20211;-79
2022/07/10 12:46:09;;;;;;;;;;;18.60;95.80;;;;;;4377739;32;43288;-80
2022/07/10 12:48:37;;;;;;;;;;;18.60;96.00;;;;;;4377862;32;42680;-77
2022/07/10 12:51:22;;;;;;;;;;;18.70;96.00;;;;;;4391089;32;43529;-79
2022/07/10 12:53:49;;;;;;;;;;;18.70;95.90;;;;;;4378082;32;42560;-78
2022/07/10 12:56:33;;;;;;;;;;;18.70;95.90;;;;;;4391482;32;42814;-78
2022/07/10 12:59:00;;;;;;;;;;;18.70;95.90;;;;;;4378301;32;43124;-77
2022/07/10 13:01:29;;;;;;;;;;;18.70;95.90;;;;;;4390962;32;43184;-77
2022/07/10 13:04:00;;;;;;;;;;;18.80;96.00;;;;;;4391129;32;43491;-78
2022/07/10 13:06:31;;;;;;;;;;;18.80;95.90;;;;;;4378174;32;43870;-77
2022/07/10 13:08:59;;;;;;;;;;;18.80;95.90;;;;;;4391317;32;44428;-78
2022/07/10 13:11:27;;;;;;;;;;;18.80;95.80;;;;;;4377460;32;43633;-80
2022/07/10 13:13:54;;;;;;;;;;;18.80;95.90;;;;;;4391815;32;20024;-79
2022/07/10 13:16:22;;;;;;;;;;;18.80;95.90;;;;;;4377367;32;42644;-77
2022/07/10 13:18:49;;;;;;;;;;;18.80;96.30;;;;;;4390391;32;46014;-77
2022/07/10 13:21:16;;;;;;;;;;;18.80;96.10;;;;;;4390632;32;43472;-77
2022/07/10 13:23:43;;;;;;;;;;;18.90;96.00;;;;;;4391206;32;44023;-77
2022/07/10 13:26:11;;;;;;;;;;;18.90;96.10;;;;;;4377149;32;43679;-79
2022/07/10 13:28:38;;;;;;;;;;;18.90;96.00;;;;;;4377166;32;42121;-79
2022/07/10 13:31:07;;;;;;;;;;;18.90;96.20;;;;;;4390946;32;45635;-77
2022/07/10 13:33:35;;;;;;;;;;;18.90;96.20;;;;;;4390763;32;45295;-80
2022/07/10 13:36:03;;;;;;;;;;;19.00;96.20;;;;;;4377201;32;43777;-78
2022/07/10 13:38:31;;;;;;;;;;;19.00;96.30;;;;;;4390899;32;43959;-77
2022/07/10 13:40:58;;;;;;;;;;;19.00;96.20;;;;;;4390984;32;43164;-77
2022/07/10 13:43:34;;;;;;;;;;;19.00;96.20;;;;;;4377288;32;44222;-80
2022/07/10 13:46:01;;;;;;;;;;;19.00;96.10;;;;;;4375676;32;43914;-77
2022/07/10 13:48:29;;;;;;;;;;;19.10;96.10;;;;;;4390605;32;43645;-78
2022/07/10 13:50:56;;;;;;;;;;;19.10;95.90;;;;;;4390794;32;43952;-79
2022/07/10 13:53:23;;;;;;;;;;;19.10;96.20;;;;;;4376768;32;43196;-76
2022/07/10 13:55:50;;;;;;;;;;;19.10;96.30;;;;;;4376868;32;43732;-81
2022/07/10 13:58:18;;;;;;;;;;;19.20;96.20;;;;;;4390000;32;42780;-81
2022/07/10 14:00:47;;;;;;;;;;;19.20;96.30;;;;;;4376768;32;45122;-78
2022/07/10 14:03:14;;;;;;;;;;;19.20;96.20;;;;;;4373896;32;42539;-77
2022/07/10 14:05:42;;;;;;;;;;;19.30;96.10;;;;;;4374178;32;43028;-78
2022/07/10 14:08:09;;;;;;;;;;;19.20;96.10;;;;;;4374927;32;44528;-78
2022/07/10 14:10:36;;;;;;;;;;;19.20;96.00;;;;;;4375213;32;44561;-77
2022/07/10 14:13:04;;;;;;;;;;;19.20;96.00;;;;;;4374203;32;43905;-78
2022/07/10 14:15:37;;;;;;;;;;;19.20;96.10;;;;;;4375371;32;43328;-77
2022/07/10 14:18:04;;;;;;;;;;;19.30;96.10;;;;;;4373848;32;43592;-78
2022/07/10 14:21:02;;;;;;;;;;;19.20;96.00;;;;;;4375025;32;44051;-77
2022/07/10 14:23:19;;;;;;;;;;;19.30;96.20;;;;;;4375146;32;42854;-77
2022/07/10 14:25:47;;;;;;;;;;;19.30;96.30;;;;;;4374009;32;42326;-77
2022/07/10 14:28:14;;;;;;;;;;;19.30;96.20;;;;;;4375199;32;43141;-78
2022/07/10 14:30:42;;;;;;;;;;;19.30;96.20;;;;;;4373540;32;43446;-78
2022/07/10 14:33:16;;;;;;;;;;;19.30;96.20;;;;;;4374373;32;43287;-77
2022/07/10 14:35:43;;;;;;;;;;;19.30;96.30;;;;;;4373656;32;43409;-79
2022/07/10 14:38:10;;;;;;;;;;;19.30;96.40;;;;;;4375192;32;43234;-79
2022/07/10 14:40:37;;;;;;;;;;;19.40;96.30;;;;;;4375118;32;43866;-78